Time;durP1;ratioP1;P1;durP2;ratioP2;P2;SDS_P1;SDS_P2;PMS_P1;PMS_P2;Temp;Humidity;BMP_temperature;BMP_pressure;BME280_temperature;BME280_humidity;BME280_pressure;Samples;Min_cycle;Max_cycle;Signal;HPM_P1;HPM_P2
2023/02/20 00:00:19;;;;;;;17.00;16.50;;;19.60;58.40;;;;;;4990958;28;20546;-66
2023/02/20 00:02:48;;;;;;;17.00;16.50;;;19.60;58.50;;;;;;4989437;28;20501;-66
2023/02/20 00:05:16;;;;;;;16.90;16.40;;;19.60;58.50;;;;;;4990967;28;20528;-66
2023/02/20 00:07:43;;;;;;;17.17;16.57;;;19.60;58.80;;;;;;4990766;28;20929;-66
2023/02/20 00:10:11;;;;;;;17.23;16.73;;;19.60;58.60;;;;;;4990756;28;20449;-65
2023/02/20 00:12:38;;;;;;;16.60;16.10;;;19.60;58.60;;;;;;4988703;28;20451;-65
2023/02/20 00:15:06;;;;;;;16.93;16.43;;;19.50;58.50;;;;;;4971388;28;20444;-65
2023/02/20 00:17:33;;;;;;;17.07;16.57;;;19.50;58.60;;;;;;4971197;28;20465;-67
2023/02/20 00:20:00;;;;;;;17.23;16.63;;;19.50;58.60;;;;;;4971358;28;20821;-65
2023/02/20 00:22:28;;;;;;;17.40;16.90;;;19.50;58.60;;;;;;4971319;28;20837;-66
2023/02/20 00:24:55;;;;;;;17.10;16.60;;;19.50;58.60;;;;;;4970982;28;20598;-64
2023/02/20 00:27:22;;;;;;;17.20;16.70;;;19.50;58.70;;;;;;4971043;28;20548;-65
2023/02/20 00:29:49;;;;;;;17.13;16.63;;;19.40;58.60;;;;;;4971130;28;20829;-66
2023/02/20 00:32:16;;;;;;;16.70;16.20;;;19.40;58.60;;;;;;4971156;28;20548;-65
2023/02/20 00:34:43;;;;;;;17.10;16.60;;;19.40;58.70;;;;;;4970789;28;20448;-65
2023/02/20 00:37:10;;;;;;;16.60;16.10;;;19.40;58.70;;;;;;4970840;28;20885;-66
2023/02/20 00:39:38;;;;;;;16.63;16.03;;;19.40;58.70;;;;;;4971001;28;20525;-66
2023/02/20 00:42:05;;;;;;;17.10;16.60;;;19.40;58.80;;;;;;4970659;28;20531;-65
2023/02/20 00:44:31;;;;;;;16.70;16.20;;;19.40;58.80;;;;;;4970989;28;20444;-67
2023/02/20 00:46:58;;;;;;;17.10;16.60;;;19.40;58.80;;;;;;4970636;28;20484;-65
2023/02/20 00:49:25;;;;;;;16.57;16.07;;;19.40;58.80;;;;;;4970414;28;20481;-65
2023/02/20 00:51:52;;;;;;;17.27;16.67;;;19.30;58.70;;;;;;4970799;28;20824;-65
2023/02/20 00:54:19;;;;;;;17.20;16.70;;;19.30;58.70;;;;;;4970716;28;20448;-66
2023/02/20 00:56:47;;;;;;;17.17;16.67;;;19.30;58.80;;;;;;4970587;28;20530;-65
2023/02/20 00:59:14;;;;;;;16.70;16.20;;;19.30;58.80;;;;;;4970390;28;21057;-67
2023/02/20 01:01:41;;;;;;;17.23;16.73;;;19.30;58.80;;;;;;4970673;28;20543;-65
2023/02/20 01:04:07;;;;;;;17.23;16.73;;;19.30;58.70;;;;;;4970680;28;20473;-65
2023/02/20 01:06:34;;;;;;;17.50;16.80;;;19.30;58.70;;;;;;4970371;28;20574;-65
2023/02/20 01:09:01;;;;;;;17.17;16.67;;;19.30;58.80;;;;;;4970510;28;20555;-65
2023/02/20 01:11:28;;;;;;;17.43;16.93;;;19.30;58.80;;;;;;4970391;28;20912;-65
2023/02/20 01:13:56;;;;;;;17.50;16.90;;;19.20;58.80;;;;;;4970528;28;20446;-67
2023/02/20 01:16:23;;;;;;;17.00;16.50;;;19.20;58.80;;;;;;4970297;28;20539;-65
2023/02/20 01:18:50;;;;;;;16.43;15.83;;;19.20;58.70;;;;;;4970479;28;20485;-66
2023/02/20 01:21:17;;;;;;;17.27;16.77;;;19.20;58.80;;;;;;4970185;28;20456;-67
2023/02/20 01:23:44;;;;;;;17.40;16.80;;;19.20;58.80;;;;;;4970299;28;20454;-66
2023/02/20 01:26:11;;;;;;;17.13;16.63;;;19.20;58.80;;;;;;4969106;28;20574;-65
2023/02/20 01:28:38;;;;;;;17.03;16.53;;;19.20;59.40;;;;;;4970240;28;20555;-66
2023/02/20 01:31:07;;;;;;;16.40;15.90;;;19.20;58.80;;;;;;4969981;28;20454;-65
2023/02/20 01:33:34;;;;;;;16.77;16.27;;;19.20;58.80;;;;;;4970314;28;20527;-65
2023/02/20 01:36:01;;;;;;;17.60;17.03;;;19.20;58.90;;;;;;4970024;28;20531;-66
2023/02/20 01:38:28;;;;;;;17.17;16.63;;;19.10;58.80;;;;;;4970064;28;20468;-65
2023/02/20 01:40:55;;;;;;;17.10;16.50;;;19.20;58.90;;;;;;4969654;28;20443;-66
2023/02/20 01:43:21;;;;;;;16.97;16.47;;;19.20;58.90;;;;;;4970039;28;20826;-67
2023/02/20 01:45:48;;;;;;;17.60;17.00;;;19.10;58.80;;;;;;4969930;28;20484;-66
2023/02/20 01:48:24;;;;;;;16.77;16.27;;;19.10;58.90;;;;;;4969724;28;20480;-66
2023/02/20 01:50:56;;;;;;;17.80;17.13;;;19.10;58.90;;;;;;4969838;28;20498;-65
2023/02/20 01:53:25;;;;;;;16.90;16.40;;;19.10;58.90;;;;;;4969907;28;20458;-67
2023/02/20 01:55:56;;;;;;;16.90;16.40;;;19.10;58.90;;;;;;4969823;28;20444;-67
2023/02/20 01:58:26;;;;;;;16.67;16.17;;;19.10;59.00;;;;;;4969714;28;20550;-66
2023/02/20 02:00:54;;;;;;;17.60;17.10;;;19.00;59.00;;;;;;4969830;28;20471;-67
2023/02/20 02:03:26;;;;;;;16.93;16.43;;;19.00;59.00;;;;;;4969762;28;20448;-67
2023/02/20 02:05:55;;;;;;;16.93;16.33;;;19.00;59.00;;;;;;4970899;28;20493;-66
2023/02/20 02:08:24;;;;;;;17.07;16.50;;;19.00;59.00;;;;;;4974100;28;20559;-66
2023/02/20 02:10:59;;;;;;;16.90;16.40;;;19.00;59.00;;;;;;4970065;28;20817;-66
2023/02/20 02:13:26;;;;;;;17.23;16.73;;;19.00;58.90;;;;;;4969830;28;20961;-66
2023/02/20 02:15:53;;;;;;;17.70;17.13;;;19.00;59.00;;;;;;4969742;28;20527;-66
2023/02/20 02:18:41;;;;;;;17.33;16.83;;;19.10;59.00;;;;;;4969589;28;20490;-65
2023/02/20 02:21:57;;;;;;;16.90;16.40;;;19.00;59.00;;;;;;4969762;28;20517;-67
2023/02/20 02:25:00;;;;;;;17.73;17.00;;;19.00;59.00;;;;;;4969658;28;20448;-67
2023/02/20 02:28:12;;;;;;;16.87;16.37;;;19.00;59.00;;;;;;4969395;28;20491;-66
2023/02/20 02:31:12;;;;;;;17.60;17.07;;;19.00;59.10;;;;;;4893486;29;20467;-66
2023/02/20 02:33:58;;;;;;;17.60;16.90;;;18.90;59.10;;;;;;4915083;28;20453;-68
2023/02/20 02:36:42;;;;;;;17.17;16.57;;;18.90;59.10;;;;;;4970353;28;20832;-67
2023/02/20 02:39:17;;;;;;;17.67;17.07;;;18.90;59.20;;;;;;4972990;28;21016;-65
2023/02/20 02:41:49;;;;;;;17.60;17.10;;;18.90;59.20;;;;;;4972996;28;20526;-66
2023/02/20 02:44:21;;;;;;;17.00;16.50;;;18.90;59.20;;;;;;4973225;28;20444;-66
2023/02/20 02:46:54;;;;;;;17.70;17.20;;;18.90;59.20;;;;;;4972420;28;20476;-66
2023/02/20 02:49:26;;;;;;;17.70;17.10;;;18.90;59.30;;;;;;4972632;28;20476;-66
2023/02/20 02:51:56;;;;;;;17.33;16.80;;;18.90;59.20;;;;;;4972702;28;20897;-66
2023/02/20 02:54:26;;;;;;;17.17;16.67;;;18.90;59.30;;;;;;4972902;28;20931;-67
2023/02/20 02:57:14;;;;;;;17.20;16.70;;;18.90;59.20;;;;;;4972294;28;20534;-67
2023/02/20 02:59:43;;;;;;;17.73;17.20;;;18.90;59.20;;;;;;4972714;28;20479;-66
2023/02/20 03:02:15;;;;;;;17.70;17.10;;;18.90;59.20;;;;;;4972951;28;20451;-66
2023/02/20 03:04:45;;;;;;;17.50;17.00;;;18.90;59.20;;;;;;4980259;28;20452;-66
2023/02/20 03:07:16;;;;;;;18.17;17.30;;;18.90;59.20;;;;;;4983133;28;20484;-67
2023/02/20 03:09:46;;;;;;;17.67;17.17;;;18.90;59.10;;;;;;4983178;28;20475;-66
2023/02/20 03:12:13;;;;;;;18.17;17.60;;;18.90;59.20;;;;;;4984553;28;21144;-66
2023/02/20 03:17:31;;;;;;;17.93;17.33;;;18.90;59.10;;;;;;4983101;28;20443;-66
2023/02/20 03:20:00;;;;;;;17.37;16.77;;;18.90;59.10;;;;;;4982918;28;20467;-67
2023/02/20 03:22:32;;;;;;;16.83;16.33;;;18.80;59.10;;;;;;4984537;28;20458;-66
2023/02/20 03:25:04;;;;;;;17.90;17.30;;;18.80;59.10;;;;;;4985260;28;20451;-67
2023/02/20 03:27:41;;;;;;;17.50;17.00;;;18.80;59.10;;;;;;4971926;28;20853;-64
2023/02/20 03:30:15;;;;;;;17.63;17.03;;;18.80;59.20;;;;;;4972304;28;21040;-66
2023/02/20 03:43:53;;;;;;;17.83;17.33;;;18.80;59.20;;;;;;4972155;28;20469;-67
2023/02/20 03:46:23;;;;;;;17.53;16.93;;;18.80;59.20;;;;;;4971921;28;20991;-66
2023/02/20 03:48:55;;;;;;;17.23;16.57;;;18.80;59.30;;;;;;4970904;28;21069;-67
2023/02/20 03:54:10;;;;;;;16.60;16.10;;;18.80;59.30;;;;;;4971946;28;20422;-66
2023/02/20 03:56:41;;;;;;;16.63;16.13;;;18.80;59.20;;;;;;4971643;28;20447;-65
2023/02/20 03:59:14;;;;;;;17.67;17.10;;;18.70;59.20;;;;;;4971341;28;20490;-66
2023/02/20 04:01:43;;;;;;;17.80;17.20;;;18.80;59.30;;;;;;4975193;28;20457;-66
2023/02/20 04:04:14;;;;;;;16.73;16.23;;;18.80;59.30;;;;;;4991026;28;20540;-65
2023/02/20 04:06:42;;;;;;;18.10;17.50;;;18.80;59.30;;;;;;4990765;28;20485;-66
2023/02/20 04:09:14;;;;;;;17.73;17.17;;;18.80;59.30;;;;;;4990876;28;20477;-65
2023/02/20 04:11:44;;;;;;;17.03;16.50;;;18.70;59.30;;;;;;4987154;28;20452;-66
2023/02/20 04:14:14;;;;;;;16.60;16.10;;;18.70;59.20;;;;;;4971680;28;20448;-67
2023/02/20 04:16:45;;;;;;;17.80;17.10;;;18.70;59.30;;;;;;4971237;28;20539;-65
2023/02/20 04:19:12;;;;;;;17.27;16.77;;;18.70;59.20;;;;;;4971374;28;20479;-66
2023/02/20 04:21:42;;;;;;;17.00;16.50;;;18.70;59.20;;;;;;4974277;28;20557;-67
2023/02/20 04:24:15;;;;;;;17.10;16.60;;;18.70;59.20;;;;;;4990713;28;20974;-67
2023/02/20 04:26:42;;;;;;;17.00;16.50;;;18.70;59.30;;;;;;4990537;28;20849;-67
2023/02/20 04:29:09;;;;;;;16.80;16.30;;;18.70;59.30;;;;;;4990563;28;20473;-67
2023/02/20 04:31:36;;;;;;;17.90;17.40;;;18.70;59.20;;;;;;4987917;28;20450;-68
2023/02/20 04:34:02;;;;;;;17.67;17.07;;;18.70;59.20;;;;;;4971163;28;20475;-67
2023/02/20 04:36:29;;;;;;;18.23;17.63;;;18.70;59.20;;;;;;4971079;28;20530;-67
2023/02/20 04:38:56;;;;;;;17.60;17.00;;;18.70;59.20;;;;;;4971025;28;20554;-67
2023/02/20 04:41:24;;;;;;;17.70;17.10;;;18.70;59.30;;;;;;4971252;28;20546;-67
2023/02/20 04:44:29;;;;;;;17.57;16.97;;;18.70;59.30;;;;;;4990418;28;20542;-67
2023/02/20 04:46:38;;;;;;;17.97;17.37;;;18.70;59.30;;;;;;4989962;28;20487;-69
2023/02/20 04:49:05;;;;;;;17.37;16.87;;;18.70;59.30;;;;;;4990139;28;20558;-67
2023/02/20 04:51:32;;;;;;;17.63;17.13;;;18.70;59.30;;;;;;4980186;28;20534;-66
2023/02/20 04:53:59;;;;;;;17.73;17.13;;;18.70;59.40;;;;;;4990171;28;20447;-66
2023/02/20 04:56:27;;;;;;;17.07;16.57;;;18.70;59.30;;;;;;4989987;28;20439;-66
2023/02/20 04:58:54;;;;;;;17.60;17.00;;;18.70;59.30;;;;;;4989967;28;20549;-67
2023/02/20 05:01:21;;;;;;;17.13;16.63;;;18.60;59.30;;;;;;4976771;28;20452;-67
2023/02/20 05:03:48;;;;;;;16.90;16.40;;;18.70;59.40;;;;;;4970707;28;20455;-67
2023/02/20 05:06:14;;;;;;;17.27;16.67;;;18.70;59.40;;;;;;4970353;28;20534;-66
2023/02/20 05:08:41;;;;;;;16.80;16.30;;;18.70;59.40;;;;;;4975295;28;20562;-66
2023/02/20 05:11:08;;;;;;;17.13;16.63;;;18.70;59.40;;;;;;4990009;28;20894;-67
2023/02/20 05:13:36;;;;;;;16.73;16.23;;;18.70;59.30;;;;;;4983896;28;20448;-69
2023/02/20 05:16:03;;;;;;;16.53;15.97;;;18.70;59.50;;;;;;4968698;28;20943;-68
2023/02/20 05:18:30;;;;;;;16.67;16.17;;;18.70;59.50;;;;;;4969489;28;20464;-70
2023/02/20 05:23:41;;;;;;;16.60;16.00;;;18.70;59.60;;;;;;4970343;28;20443;-69
2023/02/20 05:26:09;;;;;;;17.00;16.50;;;18.70;59.60;;;;;;4970040;28;20539;-68
2023/02/20 05:28:38;;;;;;;17.27;16.77;;;18.80;59.70;;;;;;4970215;28;20979;-70
2023/02/20 05:31:05;;;;;;;16.60;16.00;;;18.80;59.70;;;;;;4970369;28;20448;-69
2023/02/20 05:33:33;;;;;;;17.00;16.40;;;18.80;59.80;;;;;;4969958;28;20440;-68
2023/02/20 05:36:00;;;;;;;15.50;15.10;;;18.70;59.90;;;;;;4969994;28;20942;-68
2023/02/20 05:38:27;;;;;;;16.40;15.90;;;18.70;59.90;;;;;;4970073;28;20554;-70
2023/02/20 05:40:54;;;;;;;17.37;16.67;;;18.70;60.00;;;;;;4970096;28;20509;-71
2023/02/20 05:43:22;;;;;;;16.40;15.70;;;18.70;60.10;;;;;;4969825;28;20531;-69
2023/02/20 05:45:50;;;;;;;16.67;16.07;;;18.70;60.20;;;;;;4969978;28;20451;-71
2023/02/20 05:48:16;;;;;;;17.37;16.77;;;18.70;60.30;;;;;;4970261;28;20863;-69
2023/02/20 05:50:43;;;;;;;19.10;18.13;;;18.70;60.30;;;;;;4969986;28;20443;-70
2023/02/20 05:53:10;;;;;;;17.90;17.20;;;18.60;60.20;;;;;;4970047;28;20746;-69
2023/02/20 05:55:37;;;;;;;16.60;16.10;;;18.60;60.30;;;;;;4969761;28;20546;-62
2023/02/20 05:58:05;;;;;;;18.48;17.88;;;18.60;60.20;;;;;;4970160;28;20526;-66
2023/02/20 06:00:32;;;;;;;19.20;18.60;;;18.60;61.60;;;;;;4970905;28;20213;-69
2023/02/20 06:03:00;;;;;;;19.50;18.90;;;18.80;62.10;;;;;;4971488;28;20447;-71
2023/02/20 06:05:28;;;;;;;19.60;18.90;;;18.90;62.90;;;;;;4972707;28;20502;-71
2023/02/20 06:07:55;;;;;;;19.37;18.77;;;19.00;61.90;;;;;;4972737;28;20488;-70
2023/02/20 06:10:22;;;;;;;20.33;19.13;;;19.10;61.80;;;;;;4972281;28;20509;-68
2023/02/20 06:12:48;;;;;;;19.10;18.50;;;19.10;61.70;;;;;;4975076;28;20483;-66
2023/02/20 06:15:16;;;;;;;18.03;17.43;;;19.20;61.60;;;;;;4975930;28;20535;-64
2023/02/20 06:17:44;;;;;;;18.90;18.20;;;19.30;61.60;;;;;;4975754;28;20531;-67
2023/02/20 06:20:13;;;;;;;19.20;18.53;;;19.40;61.70;;;;;;4975077;28;20547;-71
2023/02/20 06:22:40;;;;;;;19.63;18.73;;;19.40;61.50;;;;;;4973748;28;20530;-70
2023/02/20 06:25:08;;;;;;;19.50;18.90;;;19.50;61.70;;;;;;4973904;28;20456;-67
2023/02/20 06:27:35;;;;;;;19.90;19.20;;;19.60;61.30;;;;;;4973347;28;20490;-69
2023/02/20 06:30:03;;;;;;;19.20;18.50;;;19.60;60.90;;;;;;4973451;28;20898;-71
2023/02/20 06:32:30;;;;;;;18.07;17.57;;;19.70;60.40;;;;;;4973437;28;20462;-69
2023/02/20 06:34:56;;;;;;;18.60;18.00;;;19.70;60.00;;;;;;4973689;28;20439;-69
2023/02/20 06:37:25;;;;;;;19.40;18.80;;;19.70;59.90;;;;;;4973338;28;20448;-68
2023/02/20 06:39:51;;;;;;;19.27;18.67;;;19.80;59.70;;;;;;4972922;28;20482;-68
2023/02/20 06:42:18;;;;;;;17.08;16.48;;;19.90;59.70;;;;;;4973224;28;20433;-69
2023/02/20 06:44:45;;;;;;;19.33;18.70;;;19.90;59.70;;;;;;4974417;28;20299;-70
2023/02/20 06:47:13;;;;;;;19.37;18.57;;;20.10;59.40;;;;;;4974526;28;20514;-69
2023/02/20 06:49:40;;;;;;;19.40;18.60;;;20.10;59.10;;;;;;4973912;28;20572;-68
2023/02/20 06:52:09;;;;;;;19.00;18.30;;;20.10;58.80;;;;;;4974381;28;20825;-68
2023/02/20 06:54:37;;;;;;;19.57;18.87;;;20.20;58.90;;;;;;4974602;28;20456;-68
2023/02/20 06:57:04;;;;;;;19.70;19.10;;;20.20;58.80;;;;;;4974790;28;20813;-68
2023/02/20 06:59:31;;;;;;;19.60;18.70;;;20.20;58.70;;;;;;4974778;28;20962;-70
2023/02/20 07:01:57;;;;;;;19.70;19.10;;;20.20;58.70;;;;;;4974274;28;20490;-71
2023/02/20 07:04:26;;;;;;;19.03;18.33;;;20.30;58.60;;;;;;4974555;28;20539;-69
2023/02/20 07:06:53;;;;;;;19.67;19.07;;;20.30;58.50;;;;;;4974246;28;20542;-69
2023/02/20 07:09:20;;;;;;;17.70;17.10;;;20.40;58.50;;;;;;4973071;28;20442;-66
2023/02/20 07:11:49;;;;;;;20.20;19.30;;;20.40;59.00;;;;;;4974242;28;20205;-66
2023/02/20 07:14:16;;;;;;;17.17;16.50;;;20.40;58.60;;;;;;4972959;28;20508;-70
2023/02/20 07:16:43;;;;;;;16.17;15.67;;;20.50;58.50;;;;;;4981336;28;20443;-66
2023/02/20 07:19:10;;;;;;;17.00;16.40;;;20.50;58.30;;;;;;4991802;28;21052;-67
2023/02/20 07:21:37;;;;;;;16.17;15.67;;;20.50;58.50;;;;;;4991726;28;20914;-68
2023/02/20 07:24:04;;;;;;;16.80;16.10;;;20.50;58.50;;;;;;4991215;28;20451;-69
2023/02/20 07:26:31;;;;;;;16.70;15.80;;;20.50;58.50;;;;;;4991707;28;20830;-69
2023/02/20 07:29:00;;;;;;;16.00;15.50;;;20.50;58.50;;;;;;4991949;28;20985;-69
2023/02/20 07:31:27;;;;;;;16.30;15.63;;;20.50;58.40;;;;;;4992069;28;20641;-69
2023/02/20 07:33:54;;;;;;;16.47;15.83;;;20.50;58.30;;;;;;4991903;28;20451;-68
2023/02/20 07:36:21;;;;;;;15.83;15.33;;;20.50;58.80;;;;;;4991708;28;20454;-68
2023/02/20 07:38:53;;;;;;;16.47;15.97;;;20.50;58.30;;;;;;4991211;28;21054;-67
2023/02/20 07:41:20;;;;;;;16.43;15.60;;;20.50;58.10;;;;;;4991473;28;20809;-67
2023/02/20 07:43:47;;;;;;;16.23;15.73;;;20.50;58.10;;;;;;4991190;28;20533;-66
2023/02/20 07:46:15;;;;;;;15.97;15.40;;;20.50;58.00;;;;;;4991232;28;20538;-66
2023/02/20 07:48:42;;;;;;;16.93;16.30;;;20.60;58.00;;;;;;4991028;28;20495;-66
2023/02/20 07:51:09;;;;;;;17.03;16.43;;;20.60;58.00;;;;;;4991179;28;20539;-66
2023/02/20 07:53:36;;;;;;;16.17;15.30;;;20.60;58.00;;;;;;4991214;28;20872;-67
2023/02/20 07:56:04;;;;;;;16.83;16.27;;;20.60;58.00;;;;;;4990960;28;20546;-67
2023/02/20 07:58:31;;;;;;;16.40;15.90;;;20.60;57.90;;;;;;4991233;28;20465;-67
2023/02/20 08:00:58;;;;;;;15.80;15.30;;;20.60;57.80;;;;;;4990985;28;20888;-66
2023/02/20 08:03:26;;;;;;;16.10;15.60;;;20.70;57.70;;;;;;4991046;28;20449;-66
2023/02/20 08:05:52;;;;;;;17.03;16.53;;;20.70;57.60;;;;;;4990764;28;20546;-67
2023/02/20 08:08:23;;;;;;;16.50;16.00;;;20.70;57.50;;;;;;4990764;28;20555;-66
2023/02/20 08:10:50;;;;;;;16.23;15.73;;;20.70;57.40;;;;;;4990946;28;20451;-66
2023/02/20 08:13:17;;;;;;;16.43;15.93;;;20.70;57.30;;;;;;4990681;28;20948;-66
2023/02/20 08:15:44;;;;;;;16.57;16.07;;;20.70;57.10;;;;;;4990623;28;20443;-66
2023/02/20 08:18:11;;;;;;;16.90;16.40;;;20.70;57.00;;;;;;4990635;28;20498;-66
2023/02/20 08:20:39;;;;;;;16.70;16.20;;;20.70;56.90;;;;;;4993238;28;20968;-69
2023/02/20 08:23:06;;;;;;;16.60;16.10;;;20.80;57.00;;;;;;5001913;28;20886;-70
2023/02/20 08:25:34;;;;;;;16.90;16.30;;;20.80;57.00;;;;;;5004227;28;20439;-68
2023/02/20 08:28:01;;;;;;;16.13;15.63;;;20.80;56.80;;;;;;5004553;28;20498;-67
2023/02/20 08:30:28;;;;;;;16.40;15.90;;;20.90;56.80;;;;;;5004491;28;20482;-68
2023/02/20 08:32:55;;;;;;;16.30;15.80;;;20.80;56.70;;;;;;5005431;28;20481;-68
2023/02/20 08:35:23;;;;;;;17.13;16.50;;;20.90;56.60;;;;;;5004392;28;20486;-68
2023/02/20 08:37:51;;;;;;;16.70;16.20;;;20.90;56.50;;;;;;5004620;28;20845;-69
2023/02/20 08:40:18;;;;;;;17.13;16.60;;;20.90;56.40;;;;;;4990707;28;20436;-62
2023/02/20 08:42:45;;;;;;;16.50;16.00;;;20.90;56.30;;;;;;4990385;28;20442;-65
2023/02/20 08:45:14;;;;;;;16.30;15.80;;;20.90;56.30;;;;;;4990426;28;20538;-66
2023/02/20 08:47:41;;;;;;;16.90;16.40;;;20.90;56.20;;;;;;4990198;28;20860;-62
2023/02/20 08:50:08;;;;;;;16.50;16.00;;;21.00;56.20;;;;;;4990368;28;20541;-66
2023/02/20 08:52:35;;;;;;;17.20;16.50;;;21.00;56.20;;;;;;4999186;28;20515;-67
2023/02/20 08:55:04;;;;;;;16.60;16.10;;;21.00;56.10;;;;;;4999739;28;20863;-68
2023/02/20 08:57:30;;;;;;;16.83;16.33;;;21.00;56.00;;;;;;5001615;28;20985;-68
2023/02/20 08:59:57;;;;;;;16.80;16.30;;;21.00;55.90;;;;;;5001525;28;20467;-69
2023/02/20 09:02:27;;;;;;;16.60;16.00;;;21.00;55.90;;;;;;5000233;28;20535;-69
2023/02/20 09:04:55;;;;;;;16.50;16.00;;;21.10;55.90;;;;;;5002479;28;20475;-69
2023/02/20 09:07:22;;;;;;;16.93;16.20;;;21.10;55.80;;;;;;4992515;28;20457;-67
2023/02/20 09:09:50;;;;;;;16.80;16.20;;;21.10;55.70;;;;;;4990035;28;20561;-67
2023/02/20 09:12:19;;;;;;;16.83;16.33;;;21.10;55.60;;;;;;4990135;28;20442;-66
2023/02/20 09:14:46;;;;;;;16.50;16.00;;;21.10;55.60;;;;;;4990035;28;20533;-68
2023/02/20 09:17:12;;;;;;;16.50;16.00;;;21.10;55.50;;;;;;4993640;28;20447;-69
2023/02/20 09:19:39;;;;;;;16.83;16.33;;;21.20;56.10;;;;;;4994172;28;21012;-66
2023/02/20 09:22:06;;;;;;;16.20;15.70;;;21.20;55.50;;;;;;4989912;28;20454;-67
2023/02/20 09:24:34;;;;;;;16.93;16.33;;;21.20;55.40;;;;;;4989961;28;20881;-66
2023/02/20 09:27:01;;;;;;;16.90;16.30;;;21.20;55.40;;;;;;4987253;28;20455;-66
2023/02/20 09:29:29;;;;;;;17.30;16.60;;;21.20;54.90;;;;;;4983006;28;20493;-67
2023/02/20 09:31:56;;;;;;;16.47;15.97;;;21.10;54.70;;;;;;4981635;28;20465;-66
2023/02/20 09:34:24;;;;;;;16.27;15.77;;;21.10;54.80;;;;;;4985191;28;20440;-65
2023/02/20 09:36:51;;;;;;;17.63;16.87;;;21.10;55.00;;;;;;4970239;28;20498;-63
2023/02/20 09:39:18;;;;;;;15.97;15.47;;;21.10;54.90;;;;;;4983450;28;20977;-64
2023/02/20 09:42:03;;;;;;;16.40;15.77;;;21.10;54.80;;;;;;4987655;28;20875;-63
2023/02/20 09:44:40;;;;;;;17.70;16.70;;;21.10;54.60;;;;;;4969801;28;20462;-64
2023/02/20 09:47:24;;;;;;;17.70;17.10;;;21.20;54.90;;;;;;4969107;28;20452;-64
2023/02/20 09:49:52;;;;;;;16.80;16.30;;;21.20;54.80;;;;;;4969798;28;20580;-61
2023/02/20 09:52:19;;;;;;;15.93;15.43;;;21.20;54.70;;;;;;4969250;28;20454;-63
2023/02/20 09:54:53;;;;;;;17.90;17.10;;;21.20;54.80;;;;;;4970334;28;20526;-64
2023/02/20 09:57:25;;;;;;;17.60;16.90;;;21.20;54.80;;;;;;4969723;28;20831;-65
2023/02/20 09:59:59;;;;;;;17.40;16.90;;;21.30;54.60;;;;;;4969780;28;20463;-64
2023/02/20 10:02:30;;;;;;;17.20;16.60;;;21.30;54.50;;;;;;4969480;28;20452;-60
2023/02/20 10:05:01;;;;;;;16.63;16.13;;;21.30;54.50;;;;;;4969368;28;20906;-62
2023/02/20 10:07:30;;;;;;;17.57;16.97;;;21.30;54.40;;;;;;4969714;28;20464;-63
2023/02/20 10:09:58;;;;;;;16.97;16.37;;;21.30;54.50;;;;;;4969720;28;20490;-61
2023/02/20 10:12:35;;;;;;;17.30;16.40;;;21.30;54.50;;;;;;4969694;28;20454;-61
2023/02/20 10:15:13;;;;;;;17.00;16.35;;;21.30;54.50;;;;;;4969409;28;20448;-61
2023/02/20 10:17:47;;;;;;;19.00;18.20;;;21.30;54.60;;;;;;4969618;28;20295;-65
2023/02/20 10:20:20;;;;;;;17.40;16.73;;;21.30;54.70;;;;;;4969673;28;20451;-60
2023/02/20 10:22:55;;;;;;;17.50;17.00;;;21.40;54.90;;;;;;4969319;28;20535;-60
2023/02/20 10:25:28;;;;;;;17.30;16.70;;;21.40;55.00;;;;;;4969574;28;20463;-63
2023/02/20 10:28:00;;;;;;;17.43;16.83;;;21.40;55.20;;;;;;4969794;28;21096;-65
2023/02/20 10:30:32;;;;;;;17.70;17.10;;;21.40;56.60;;;;;;4970050;28;20450;-65
2023/02/20 10:33:10;;;;;;;17.43;16.83;;;21.40;55.80;;;;;;4969527;28;20578;-64
2023/02/20 10:35:44;;;;;;;15.85;15.25;;;21.40;55.70;;;;;;4968918;28;20457;-59
2023/02/20 10:38:14;;;;;;;18.30;17.60;;;21.30;56.00;;;;;;4969785;28;20311;-57
2023/02/20 10:40:46;;;;;;;17.93;17.30;;;21.40;55.80;;;;;;4969902;28;20444;-63
2023/02/20 10:43:19;;;;;;;16.30;15.70;;;21.50;56.30;;;;;;4972201;28;20476;-62
2023/02/20 10:45:53;;;;;;;18.23;17.63;;;21.50;55.80;;;;;;4971909;28;20706;-65
2023/02/20 10:48:20;;;;;;;18.70;18.00;;;21.50;55.60;;;;;;4989131;28;20486;-64
2023/02/20 10:50:54;;;;;;;19.23;18.13;;;21.50;55.50;;;;;;4989369;28;20827;-64
2023/02/20 10:53:30;;;;;;;19.57;18.20;;;21.50;55.40;;;;;;4984153;28;20444;-64
2023/02/20 10:56:03;;;;;;;18.73;17.80;;;21.50;55.50;;;;;;4969553;28;20821;-63
2023/02/20 10:58:35;;;;;;;19.13;18.10;;;21.50;55.70;;;;;;4972614;28;20546;-64
2023/02/20 11:01:06;;;;;;;20.37;18.50;;;21.50;56.00;;;;;;4973054;28;20443;-65
2023/02/20 11:03:41;;;;;;;19.20;18.13;;;21.50;56.40;;;;;;4975392;28;20455;-64
2023/02/20 11:06:11;;;;;;;20.33;19.23;;;21.50;56.90;;;;;;4972857;28;20465;-67
2023/02/20 11:08:38;;;;;;;22.97;21.13;;;21.50;59.20;;;;;;4972830;28;20483;-64
2023/02/20 11:11:21;;;;;;;23.13;20.80;;;21.50;63.10;;;;;;4972960;28;20451;-66
2023/02/20 11:13:49;;;;;;;22.57;20.40;;;21.50;65.50;;;;;;4974563;28;20448;-66
2023/02/20 11:16:24;;;;;;;22.43;20.63;;;21.50;65.10;;;;;;4972722;28;20853;-66
2023/02/20 11:19:06;;;;;;;23.73;21.90;;;21.50;66.20;;;;;;4973151;28;20861;-64
2023/02/20 11:21:37;;;;;;;21.73;20.20;;;21.60;66.20;;;;;;4975232;28;20534;-63
2023/02/20 11:24:19;;;;;;;21.67;20.47;;;21.60;66.00;;;;;;4972539;28;20448;-66
2023/02/20 11:26:49;;;;;;;20.30;19.00;;;21.60;65.90;;;;;;4972306;28;20456;-67
2023/02/20 11:29:19;;;;;;;21.70;19.73;;;21.70;65.80;;;;;;4972219;28;20495;-66
2023/02/20 11:31:48;;;;;;;21.60;20.10;;;21.70;65.60;;;;;;4975877;28;20972;-67
2023/02/20 11:34:18;;;;;;;20.37;18.47;;;21.70;66.00;;;;;;4989740;28;20448;-67
2023/02/20 11:36:48;;;;;;;19.40;18.27;;;21.70;66.50;;;;;;4989372;28;20801;-66
2023/02/20 11:39:24;;;;;;;20.90;19.20;;;21.80;65.90;;;;;;4991414;28;20470;-67
2023/02/20 11:42:11;;;;;;;20.20;18.87;;;21.70;65.60;;;;;;4991500;28;20457;-66
2023/02/20 11:44:38;;;;;;;23.03;21.33;;;21.70;65.00;;;;;;4991340;28;20463;-67
2023/02/20 11:47:23;;;;;;;20.10;18.50;;;21.70;64.40;;;;;;4991214;28;20542;-65
2023/02/20 11:50:07;;;;;;;19.93;18.57;;;21.70;63.90;;;;;;4991618;28;20847;-67
2023/02/20 11:52:34;;;;;;;20.20;18.90;;;21.70;63.30;;;;;;4991198;28;20946;-65
2023/02/20 11:55:11;;;;;;;19.17;18.20;;;21.60;62.80;;;;;;4991212;28;20453;-68
2023/02/20 11:57:43;;;;;;;19.07;18.10;;;21.60;62.30;;;;;;4990986;28;20450;-68
2023/02/20 12:00:18;;;;;;;20.23;19.03;;;21.50;61.70;;;;;;4991191;28;20458;-68
2023/02/20 12:02:52;;;;;;;18.47;17.77;;;21.50;61.40;;;;;;4991214;28;20529;-67
2023/02/20 12:05:21;;;;;;;18.93;17.93;;;21.50;61.00;;;;;;4990810;28;20812;-67
2023/02/20 12:08:20;;;;;;;18.70;17.77;;;21.50;60.70;;;;;;4990783;28;20449;-67
2023/02/20 12:10:49;;;;;;;18.67;17.40;;;21.50;60.50;;;;;;4990801;28;20445;-67
2023/02/20 12:13:17;;;;;;;18.30;17.43;;;21.50;60.20;;;;;;4990914;28;20545;-67
2023/02/20 12:15:51;;;;;;;19.93;19.03;;;21.40;59.90;;;;;;4990675;28;20538;-67
2023/02/20 12:18:45;;;;;;;19.13;18.20;;;21.40;59.80;;;;;;4990718;28;20462;-67
2023/02/20 12:21:27;;;;;;;18.63;17.83;;;21.40;59.50;;;;;;4990760;28;20451;-67
2023/02/20 12:24:07;;;;;;;18.47;17.60;;;21.40;59.40;;;;;;4990725;28;20453;-66
2023/02/20 12:26:46;;;;;;;19.27;17.87;;;21.40;59.20;;;;;;4990492;28;20447;-66
2023/02/20 12:29:26;;;;;;;17.73;17.03;;;21.30;59.00;;;;;;4990543;28;21070;-66
2023/02/20 12:32:04;;;;;;;19.33;18.20;;;21.30;58.80;;;;;;4990702;28;20809;-65
2023/02/20 12:34:46;;;;;;;18.87;18.03;;;21.30;58.80;;;;;;4990617;28;20447;-67
2023/02/20 12:37:24;;;;;;;18.10;17.30;;;21.30;58.70;;;;;;4990332;28;20447;-67
2023/02/20 12:40:00;;;;;;;18.23;17.30;;;21.30;58.60;;;;;;4990446;28;20471;-67
2023/02/20 12:42:34;;;;;;;18.40;17.50;;;21.20;58.50;;;;;;4990484;28;20452;-67
2023/02/20 12:45:26;;;;;;;18.73;17.73;;;21.20;58.40;;;;;;4990512;28;20449;-68
2023/02/20 12:48:10;;;;;;;18.60;17.90;;;21.20;58.30;;;;;;4990260;28;20475;-67
2023/02/20 12:50:55;;;;;;;18.07;17.17;;;21.20;58.20;;;;;;4990243;28;20490;-67
2023/02/20 12:53:41;;;;;;;17.97;17.17;;;21.20;58.10;;;;;;4990176;28;20451;-65
2023/02/20 12:56:22;;;;;;;17.93;17.13;;;21.20;58.10;;;;;;4990060;28;20446;-66
2023/02/20 12:58:58;;;;;;;17.47;16.80;;;21.10;58.10;;;;;;4990123;28;20469;-66
2023/02/20 13:01:25;;;;;;;18.23;17.50;;;21.10;58.00;;;;;;4990193;28;20872;-67
2023/02/20 13:04:03;;;;;;;17.80;17.10;;;21.10;58.00;;;;;;4990183;28;20443;-67